createdAt,value
2018-04-07T00:00:30.064Z,17.30
2018-04-07T00:01:01.814Z,17.20
2018-04-07T00:01:33.569Z,17.30
2018-04-07T00:02:05.320Z,17.30
2018-04-07T00:02:37.064Z,17.30
2018-04-07T00:03:08.819Z,17.30
2018-04-07T00:03:41.416Z,17.20
2018-04-07T00:04:13.900Z,17.20
2018-04-07T00:04:45.644Z,17.20
2018-04-07T00:05:17.396Z,17.20
2018-04-07T00:05:49.163Z,17.20
2018-04-07T00:06:20.935Z,17.20
2018-04-07T00:06:52.678Z,17.20
2018-04-07T00:07:25.173Z,17.20
2018-04-07T00:07:56.904Z,17.20
2018-04-07T00:08:28.642Z,17.30
2018-04-07T00:09:00.371Z,17.20
2018-04-07T00:09:32.110Z,17.20
2018-04-07T00:10:04.662Z,17.30
2018-04-07T00:10:37.168Z,17.30
2018-04-07T00:11:08.915Z,17.20
2018-04-07T00:11:40.648Z,17.20
2018-04-07T00:12:12.384Z,17.20
2018-04-07T00:12:44.119Z,17.20
2018-04-07T00:13:17.023Z,17.20
2018-04-07T00:13:48.769Z,17.20
2018-04-07T00:14:20.509Z,17.20
2018-04-07T00:14:52.238Z,17.20
2018-04-07T00:15:23.984Z,17.20
2018-04-07T00:15:55.731Z,17.20
2018-04-07T00:16:27.472Z,17.20
2018-04-07T00:16:59.203Z,17.20
2018-04-07T00:17:30.938Z,17.20
2018-04-07T00:18:04.182Z,17.20
2018-04-07T00:18:35.933Z,17.20
2018-04-07T00:19:07.668Z,17.20
2018-04-07T00:19:39.422Z,17.20
2018-04-07T00:20:11.173Z,17.20
2018-04-07T00:20:42.967Z,17.20
2018-04-07T00:21:15.464Z,17.20
2018-04-07T00:21:47.196Z,17.20
2018-04-07T00:22:18.942Z,17.20
2018-04-07T00:22:50.689Z,17.20
2018-04-07T00:23:22.444Z,17.20
2018-04-07T00:23:54.198Z,17.20
2018-04-07T00:24:25.960Z,17.10
2018-04-07T00:24:58.461Z,17.10
2018-04-07T00:25:30.193Z,17.10
2018-04-07T00:26:02.040Z,17.10
2018-04-07T00:26:33.778Z,17.10
2018-04-07T00:27:05.512Z,17.10
2018-04-07T00:27:38.046Z,17.10
2018-04-07T00:28:09.763Z,17.10
2018-04-07T00:28:41.507Z,17.10
2018-04-07T00:29:13.255Z,17.10
2018-04-07T00:29:45.004Z,17.10
2018-04-07T00:30:16.758Z,17.10
2018-04-07T00:30:48.510Z,17.10
2018-04-07T00:31:20.240Z,17.10
2018-04-07T00:31:51.976Z,17.10
2018-04-07T00:32:23.719Z,17.10
2018-04-07T00:32:55.478Z,17.10
2018-04-07T00:33:27.214Z,17.10
2018-04-07T00:33:58.979Z,17.10
2018-04-07T00:34:30.728Z,17.10
2018-04-07T00:35:02.455Z,17.10
2018-04-07T00:35:34.215Z,17.10
2018-04-07T00:36:05.950Z,17.10
2018-04-07T00:36:37.710Z,17.10
2018-04-07T00:37:09.445Z,17.10
2018-04-07T00:37:41.197Z,17.10
2018-04-07T00:38:12.969Z,17.10
2018-04-07T00:38:45.516Z,17.10
2018-04-07T00:39:18.042Z,17.10
2018-04-07T00:39:49.782Z,17.10
2018-04-07T00:40:21.536Z,17.10
2018-04-07T00:40:53.279Z,17.10
2018-04-07T00:41:25.004Z,17.10
2018-04-07T00:41:56.740Z,17.10
2018-04-07T00:42:28.534Z,17.00
2018-04-07T00:43:00.256Z,17.10
2018-04-07T00:43:31.993Z,17.10
2018-04-07T00:44:03.738Z,17.10
2018-04-07T00:44:35.480Z,17.00
2018-04-07T00:45:07.222Z,17.10
2018-04-07T00:45:38.968Z,17.00
2018-04-07T00:46:10.738Z,17.00
2018-04-07T00:46:42.479Z,17.10
2018-04-07T00:47:14.231Z,17.00
2018-04-07T00:47:46.723Z,17.10
2018-04-07T00:48:19.235Z,17.00
2018-04-07T00:48:50.970Z,17.00
2018-04-07T00:49:22.718Z,17.00
2018-04-07T00:49:54.514Z,17.10
2018-04-07T00:50:27.025Z,17.00
2018-04-07T00:50:58.792Z,17.00
2018-04-07T00:51:30.520Z,17.10
2018-04-07T00:52:02.271Z,17.10
2018-04-07T00:52:34.008Z,17.00
2018-04-07T00:53:05.750Z,17.00
2018-04-07T00:53:37.569Z,17.00
2018-04-07T00:54:09.280Z,17.00
2018-04-07T00:54:41.799Z,17.10
2018-04-07T00:55:13.568Z,17.00
2018-04-07T00:55:45.318Z,17.00
2018-04-07T00:56:17.044Z,17.00
2018-04-07T00:56:48.814Z,17.00
2018-04-07T00:57:20.541Z,17.00
2018-04-07T00:57:52.479Z,17.00
2018-04-07T00:58:24.212Z,17.00
2018-04-07T00:58:55.957Z,17.00
2018-04-07T00:59:27.711Z,17.00
2018-04-07T00:59:59.438Z,17.00
2018-04-07T01:00:31.188Z,17.00
2018-04-07T01:01:02.932Z,17.00
2018-04-07T01:01:34.688Z,17.00
2018-04-07T01:02:06.452Z,17.00
2018-04-07T01:02:38.186Z,17.00
2018-04-07T01:03:09.919Z,17.00
2018-04-07T01:03:41.664Z,17.00
2018-04-07T01:04:13.400Z,17.00
2018-04-07T01:04:45.172Z,17.00
2018-04-07T01:05:16.916Z,16.90
2018-04-07T01:05:48.646Z,17.00
2018-04-07T01:06:20.415Z,17.00
2018-04-07T01:06:52.131Z,17.00
2018-04-07T01:07:23.904Z,17.00
2018-04-07T01:07:55.808Z,16.90
2018-04-07T01:08:27.542Z,16.90
2018-04-07T01:08:59.366Z,16.90
2018-04-07T01:09:31.100Z,17.00
2018-04-07T01:10:03.611Z,16.90
2018-04-07T01:10:35.363Z,16.90
2018-04-07T01:11:07.125Z,16.90
2018-04-07T01:11:38.865Z,16.90
2018-04-07T01:12:10.612Z,16.90
2018-04-07T01:12:42.358Z,16.90
2018-04-07T01:13:14.108Z,16.90
2018-04-07T01:13:45.846Z,16.90
2018-04-07T01:14:17.582Z,16.90
2018-04-07T01:14:49.321Z,16.90
2018-04-07T01:15:21.057Z,16.90
2018-04-07T01:15:52.806Z,16.90
2018-04-07T01:16:24.564Z,16.90
2018-04-07T01:16:56.334Z,16.90
2018-04-07T01:17:28.079Z,16.90
2018-04-07T01:18:00.582Z,16.90
2018-04-07T01:18:32.327Z,16.90
2018-04-07T01:19:04.241Z,16.90
2018-04-07T01:19:36.742Z,16.90
2018-04-07T01:20:08.499Z,16.90
2018-04-07T01:20:40.236Z,16.90
2018-04-07T01:21:11.983Z,16.90
2018-04-07T01:21:43.738Z,16.90
2018-04-07T01:22:15.472Z,16.90
2018-04-07T01:22:47.217Z,16.90
2018-04-07T01:23:18.965Z,16.90
2018-04-07T01:23:50.724Z,16.90
2018-04-07T01:24:22.462Z,16.90
2018-04-07T01:24:54.188Z,16.90
2018-04-07T01:25:25.940Z,16.90
2018-04-07T01:25:57.687Z,16.90
2018-04-07T01:26:29.420Z,16.90
2018-04-07T01:27:01.157Z,16.90
2018-04-07T01:27:32.952Z,16.90
2018-04-07T01:28:05.465Z,16.90
2018-04-07T01:28:37.197Z,16.90
2018-04-07T01:29:08.950Z,16.90
2018-04-07T01:29:40.712Z,16.90
2018-04-07T01:30:12.458Z,16.90
2018-04-07T01:30:44.287Z,16.90
2018-04-07T01:31:16.771Z,16.90
2018-04-07T01:31:48.527Z,16.80
2018-04-07T01:32:20.256Z,16.90
2018-04-07T01:32:52.007Z,16.90
2018-04-07T01:33:23.748Z,16.90
2018-04-07T01:33:55.480Z,16.90
2018-04-07T01:34:27.223Z,16.90
2018-04-07T01:34:58.959Z,16.90
2018-04-07T01:35:30.736Z,16.90
2018-04-07T01:36:02.483Z,16.90
2018-04-07T01:36:34.228Z,16.90
2018-04-07T01:37:05.963Z,16.90
2018-04-07T01:37:37.694Z,16.90
2018-04-07T01:38:09.444Z,16.90
2018-04-07T01:38:41.195Z,16.90
2018-04-07T01:39:12.908Z,16.80
2018-04-07T01:39:44.638Z,16.80
2018-04-07T01:40:16.367Z,16.80
2018-04-07T01:40:48.875Z,16.80
2018-04-07T01:41:20.611Z,16.80
2018-04-07T01:41:52.335Z,16.80
2018-04-07T01:42:24.072Z,16.80
2018-04-07T01:42:55.808Z,16.80
2018-04-07T01:43:28.324Z,16.80
2018-04-07T01:44:00.083Z,16.80
2018-04-07T01:44:31.850Z,16.80
2018-04-07T01:45:04.356Z,16.90
2018-04-07T01:45:36.101Z,16.90
2018-04-07T01:46:07.835Z,16.90
2018-04-07T01:46:39.760Z,16.90
2018-04-07T01:47:12.277Z,16.90
2018-04-07T01:47:44.016Z,16.90
2018-04-07T01:48:15.756Z,16.90
2018-04-07T01:48:47.499Z,16.90
2018-04-07T01:49:19.264Z,16.90
2018-04-07T01:49:50.997Z,16.90
2018-04-07T01:50:22.739Z,16.90
2018-04-07T01:50:54.487Z,16.80
2018-04-07T01:51:26.219Z,16.90
2018-04-07T01:51:57.972Z,16.90
2018-04-07T01:52:29.929Z,16.80
2018-04-07T01:53:01.677Z,16.80
2018-04-07T01:53:33.415Z,16.80
2018-04-07T01:54:05.163Z,16.80
2018-04-07T01:54:36.893Z,16.80
2018-04-07T01:55:08.641Z,16.80
2018-04-07T01:55:40.407Z,16.90
2018-04-07T01:56:12.147Z,16.90
2018-04-07T01:56:43.885Z,16.90
2018-04-07T01:57:15.643Z,16.90
2018-04-07T01:57:47.571Z,16.90
2018-04-07T01:58:19.343Z,16.90
2018-04-07T01:58:51.056Z,16.80
2018-04-07T01:59:22.825Z,16.90
2018-04-07T01:59:54.568Z,16.90
2018-04-07T02:00:27.104Z,16.80
2018-04-07T02:00:58.843Z,16.80
2018-04-07T02:01:30.584Z,16.80
2018-04-07T02:02:02.316Z,16.80
2018-04-07T02:02:34.051Z,16.80
2018-04-07T02:03:05.807Z,16.80
2018-04-07T02:03:37.540Z,16.80
2018-04-07T02:04:09.288Z,16.80
2018-04-07T02:04:41.032Z,16.80
2018-04-07T02:05:12.798Z,16.80
2018-04-07T02:05:44.720Z,16.80
2018-04-07T02:06:16.448Z,16.80
2018-04-07T02:06:48.967Z,16.80
2018-04-07T02:07:20.711Z,16.80
2018-04-07T02:07:52.455Z,16.90
2018-04-07T02:08:24.191Z,16.80
2018-04-07T02:08:55.948Z,16.80
2018-04-07T02:09:27.682Z,16.80
2018-04-07T02:09:59.424Z,16.80
2018-04-07T02:10:31.196Z,16.80
2018-04-07T02:11:02.947Z,16.80
2018-04-07T02:11:34.684Z,16.80
2018-04-07T02:12:06.441Z,16.80
2018-04-07T02:12:38.176Z,16.70
2018-04-07T02:13:09.912Z,16.80
2018-04-07T02:13:41.669Z,16.70
2018-04-07T02:14:13.477Z,16.80
2018-04-07T02:14:45.189Z,16.80
2018-04-07T02:15:17.029Z,16.80
2018-04-07T02:15:49.537Z,16.80
2018-04-07T02:16:21.281Z,16.70
2018-04-07T02:16:53.029Z,16.80
2018-04-07T02:17:24.772Z,16.80
2018-04-07T02:17:56.563Z,16.80
2018-04-07T02:18:29.065Z,16.80
2018-04-07T02:19:00.994Z,16.80
2018-04-07T02:19:32.745Z,16.80
2018-04-07T02:20:04.484Z,16.70
2018-04-07T02:20:36.217Z,16.70
2018-04-07T02:21:08.727Z,16.70
2018-04-07T02:21:40.468Z,16.70
2018-04-07T02:22:12.223Z,16.70
2018-04-07T02:22:43.977Z,16.70
2018-04-07T02:23:15.717Z,16.80
2018-04-07T02:23:47.531Z,16.80
2018-04-07T02:24:20.038Z,16.80
2018-04-07T02:24:51.763Z,16.70
2018-04-07T02:25:23.504Z,16.80
2018-04-07T02:25:55.257Z,16.80
2018-04-07T02:26:26.997Z,16.70
2018-04-07T02:26:58.736Z,16.80
2018-04-07T02:27:30.474Z,16.80
2018-04-07T02:28:02.211Z,16.80
2018-04-07T02:28:33.956Z,16.80
2018-04-07T02:29:05.691Z,16.80
2018-04-07T02:29:37.447Z,16.80
2018-04-07T02:30:09.213Z,16.80
2018-04-07T02:30:40.955Z,16.80
2018-04-07T02:31:12.709Z,16.80
2018-04-07T02:31:44.440Z,16.80
2018-04-07T02:32:16.174Z,16.80
2018-04-07T02:32:47.919Z,16.80
2018-04-07T02:33:19.649Z,16.80
2018-04-07T02:33:51.392Z,16.80
2018-04-07T02:34:23.136Z,16.80
2018-04-07T02:34:55.151Z,16.80
2018-04-07T02:35:26.884Z,16.80
2018-04-07T02:35:59.386Z,16.70
2018-04-07T02:36:31.145Z,16.70
2018-04-07T02:37:02.898Z,16.70
2018-04-07T02:37:34.821Z,16.70
2018-04-07T02:38:06.566Z,16.70
2018-04-07T02:38:38.302Z,16.70
2018-04-07T02:39:10.031Z,16.70
2018-04-07T02:39:42.546Z,16.70
2018-04-07T02:40:14.283Z,16.70
2018-04-07T02:40:46.086Z,16.70
2018-04-07T02:41:18.508Z,16.70
2018-04-07T02:41:50.235Z,16.70
2018-04-07T02:42:21.977Z,16.70
2018-04-07T02:42:53.726Z,16.70
2018-04-07T02:43:25.475Z,16.60
2018-04-07T02:43:57.212Z,16.60
2018-04-07T02:44:28.976Z,16.60
2018-04-07T02:45:00.924Z,16.60
2018-04-07T02:45:32.699Z,16.60
2018-04-07T02:46:05.270Z,16.70
2018-04-07T02:46:37.795Z,16.70
2018-04-07T02:47:09.531Z,16.60
2018-04-07T02:47:41.263Z,16.70
2018-04-07T02:48:13.013Z,16.70
2018-04-07T02:48:44.779Z,16.60
2018-04-07T02:49:16.618Z,16.60
2018-04-07T02:49:48.550Z,16.60
2018-04-07T02:50:20.354Z,16.60
2018-04-07T02:50:52.253Z,16.60
2018-04-07T02:51:23.987Z,16.60
2018-04-07T02:51:55.740Z,16.60
2018-04-07T02:52:27.469Z,16.60
2018-04-07T02:52:59.224Z,16.60
2018-04-07T02:53:30.955Z,16.60
2018-04-07T02:54:02.702Z,16.60
2018-04-07T02:54:34.436Z,16.60
2018-04-07T02:55:06.178Z,16.60
2018-04-07T02:55:37.979Z,16.60
2018-04-07T02:56:09.739Z,16.60
2018-04-07T02:56:42.232Z,16.60
2018-04-07T02:57:13.984Z,16.60
2018-04-07T02:57:45.962Z,16.60
2018-04-07T02:58:17.689Z,16.60
2018-04-07T02:58:49.433Z,16.60
2018-04-07T02:59:21.173Z,16.60
2018-04-07T02:59:53.135Z,16.60
2018-04-07T03:00:24.873Z,16.60
2018-04-07T03:00:56.615Z,16.60
2018-04-07T03:01:28.365Z,16.60
2018-04-07T03:02:00.130Z,16.60
2018-04-07T03:02:31.847Z,16.60
2018-04-07T03:03:03.580Z,16.60
2018-04-07T03:03:35.323Z,16.60
2018-04-07T03:04:07.057Z,16.60
2018-04-07T03:04:38.796Z,16.60
2018-04-07T03:05:10.547Z,16.60
2018-04-07T03:05:42.353Z,16.60
2018-04-07T03:06:14.855Z,16.60
2018-04-07T03:06:46.584Z,16.60
2018-04-07T03:07:18.343Z,16.60
2018-04-07T03:07:50.088Z,16.60
2018-04-07T03:08:21.818Z,16.60
2018-04-07T03:08:53.558Z,16.50
2018-04-07T03:09:26.058Z,16.60
2018-04-07T03:09:57.795Z,16.60
2018-04-07T03:10:29.540Z,16.60
2018-04-07T03:11:01.291Z,16.60
2018-04-07T03:11:33.051Z,16.60
2018-04-07T03:12:04.806Z,16.60
2018-04-07T03:12:36.542Z,16.60
2018-04-07T03:13:08.287Z,16.60
2018-04-07T03:13:40.036Z,16.60
2018-04-07T03:14:11.790Z,16.50
2018-04-07T03:14:43.520Z,16.50
2018-04-07T03:15:15.309Z,16.60
2018-04-07T03:15:47.014Z,16.60
2018-04-07T03:16:18.751Z,16.60
2018-04-07T03:16:50.508Z,16.60
2018-04-07T03:17:22.229Z,16.60
2018-04-07T03:17:53.968Z,16.60
2018-04-07T03:18:25.738Z,16.60
2018-04-07T03:18:57.463Z,16.60
2018-04-07T03:19:29.200Z,16.60
2018-04-07T03:20:00.939Z,16.60
2018-04-07T03:20:32.680Z,16.70
2018-04-07T03:21:04.447Z,16.70
2018-04-07T03:21:36.177Z,16.70
2018-04-07T03:22:07.904Z,16.60
2018-04-07T03:22:39.642Z,16.60
2018-04-07T03:23:11.405Z,16.60
2018-04-07T03:23:43.124Z,16.60
2018-04-07T03:24:14.863Z,16.60
2018-04-07T03:24:46.596Z,16.60
2018-04-07T03:25:18.606Z,16.60
2018-04-07T03:25:50.357Z,16.60
2018-04-07T03:26:22.229Z,16.60
2018-04-07T03:26:53.999Z,16.60
2018-04-07T03:27:26.588Z,16.50
2018-04-07T03:27:58.334Z,16.50
2018-04-07T03:28:30.047Z,16.60
2018-04-07T03:29:01.795Z,16.50
2018-04-07T03:29:34.301Z,16.50
2018-04-07T03:30:06.033Z,16.50
2018-04-07T03:30:37.785Z,16.50
2018-04-07T03:31:09.538Z,16.60
2018-04-07T03:31:41.311Z,16.60
2018-04-07T03:32:13.228Z,16.60
2018-04-07T03:32:45.051Z,16.60
2018-04-07T03:33:17.546Z,16.50
2018-04-07T03:33:49.262Z,16.50
2018-04-07T03:34:21.027Z,16.50
2018-04-07T03:34:52.753Z,16.50
2018-04-07T03:35:24.499Z,16.50
2018-04-07T03:35:56.240Z,16.50
2018-04-07T03:36:27.998Z,16.50
2018-04-07T03:36:59.733Z,16.60
2018-04-07T03:37:31.487Z,16.50
2018-04-07T03:38:03.239Z,16.50
2018-04-07T03:38:34.996Z,16.50
2018-04-07T03:39:06.739Z,16.50
2018-04-07T03:39:38.483Z,16.50
2018-04-07T03:40:10.224Z,16.50
2018-04-07T03:40:41.972Z,16.50
2018-04-07T03:41:13.715Z,16.50
2018-04-07T03:41:45.447Z,16.50
2018-04-07T03:42:17.204Z,16.50
2018-04-07T03:42:48.941Z,16.50
2018-04-07T03:43:20.684Z,16.50
2018-04-07T03:43:52.470Z,16.50
2018-04-07T03:44:24.185Z,16.50
2018-04-07T03:44:55.916Z,16.40
2018-04-07T03:45:27.690Z,16.50
2018-04-07T03:45:59.423Z,16.50
2018-04-07T03:46:31.156Z,16.50
2018-04-07T03:47:02.899Z,16.60
2018-04-07T03:47:34.635Z,16.50
2018-04-07T03:48:06.371Z,16.50
2018-04-07T03:48:38.132Z,16.50
2018-04-07T03:49:09.848Z,16.50
2018-04-07T03:49:41.588Z,16.50
2018-04-07T03:50:13.333Z,16.50
2018-04-07T03:50:45.075Z,16.50
2018-04-07T03:51:16.816Z,16.40
2018-04-07T03:51:48.570Z,16.40
2018-04-07T03:52:20.308Z,16.40
2018-04-07T03:52:52.038Z,16.40
2018-04-07T03:53:24.540Z,16.40
2018-04-07T03:53:56.289Z,16.40
2018-04-07T03:54:28.110Z,16.40
2018-04-07T03:55:00.587Z,16.50
2018-04-07T03:55:32.335Z,16.40
2018-04-07T03:56:04.078Z,16.50
2018-04-07T03:56:35.815Z,16.50
2018-04-07T03:57:07.554Z,16.50
2018-04-07T03:57:39.292Z,16.50
2018-04-07T03:58:11.067Z,16.50
2018-04-07T03:58:42.784Z,16.50
2018-04-07T03:59:14.520Z,16.50
2018-04-07T03:59:46.263Z,16.50
2018-04-07T04:00:18.032Z,16.50
2018-04-07T04:00:49.782Z,16.50
2018-04-07T04:01:21.519Z,16.50
2018-04-07T04:01:53.268Z,16.50
2018-04-07T04:02:24.999Z,16.50
2018-04-07T04:02:56.768Z,16.50
2018-04-07T04:03:28.507Z,16.50
2018-04-07T04:04:00.235Z,16.50
2018-04-07T04:04:31.980Z,16.40
2018-04-07T04:05:03.723Z,16.40
2018-04-07T04:05:35.460Z,16.50
2018-04-07T04:06:07.203Z,16.50
2018-04-07T04:06:38.942Z,16.50
2018-04-07T04:07:10.675Z,16.50
2018-04-07T04:07:42.426Z,16.50
2018-04-07T04:08:14.167Z,16.50
2018-04-07T04:08:45.908Z,16.40
2018-04-07T04:09:17.648Z,16.50
2018-04-07T04:09:49.395Z,16.50
2018-04-07T04:10:21.149Z,16.50
2018-04-07T04:10:52.884Z,16.50
2018-04-07T04:11:25.588Z,16.40
2018-04-07T04:11:57.366Z,16.50
2018-04-07T04:12:29.153Z,16.50
2018-04-07T04:13:01.628Z,16.40
2018-04-07T04:13:33.381Z,16.40
2018-04-07T04:14:05.113Z,16.40
2018-04-07T04:14:36.844Z,16.40
2018-04-07T04:15:08.599Z,16.40
2018-04-07T04:15:40.336Z,16.40
2018-04-07T04:16:12.083Z,16.40
2018-04-07T04:16:43.815Z,16.40
2018-04-07T04:17:15.560Z,16.40
2018-04-07T04:17:47.298Z,16.40
2018-04-07T04:18:19.033Z,16.40
2018-04-07T04:18:51.533Z,16.40
2018-04-07T04:19:23.278Z,16.40
2018-04-07T04:19:55.012Z,16.40
2018-04-07T04:20:26.760Z,16.40
2018-04-07T04:20:58.519Z,16.40
2018-04-07T04:21:30.252Z,16.40
2018-04-07T04:22:01.986Z,16.40
2018-04-07T04:22:33.722Z,16.40
2018-04-07T04:23:05.468Z,16.40
2018-04-07T04:23:37.202Z,16.40
2018-04-07T04:24:08.949Z,16.40
2018-04-07T04:24:40.694Z,16.30
2018-04-07T04:25:12.431Z,16.30
2018-04-07T04:25:44.185Z,16.30
2018-04-07T04:26:15.926Z,16.30
2018-04-07T04:26:47.751Z,16.40
2018-04-07T04:27:20.264Z,16.40
2018-04-07T04:27:51.999Z,16.30
2018-04-07T04:28:23.760Z,16.30
2018-04-07T04:28:55.484Z,16.30
2018-04-07T04:29:27.218Z,16.30
2018-04-07T04:29:58.992Z,16.30
2018-04-07T04:30:30.713Z,16.30
2018-04-07T04:31:02.463Z,16.30
2018-04-07T04:31:34.407Z,16.30
2018-04-07T04:32:06.165Z,16.30
2018-04-07T04:32:37.900Z,16.30
2018-04-07T04:33:09.635Z,16.30
2018-04-07T04:33:41.379Z,16.30
2018-04-07T04:34:13.232Z,16.30
2018-04-07T04:34:45.727Z,16.30
2018-04-07T04:35:17.475Z,16.30
2018-04-07T04:35:49.213Z,16.30
2018-04-07T04:36:20.976Z,16.30
2018-04-07T04:36:52.679Z,16.30
2018-04-07T04:37:24.432Z,16.30
2018-04-07T04:37:56.183Z,16.30
2018-04-07T04:38:27.944Z,16.30
2018-04-07T04:38:59.676Z,16.30
2018-04-07T04:39:31.441Z,16.30
2018-04-07T04:40:03.358Z,16.30
2018-04-07T04:40:35.110Z,16.30
2018-04-07T04:41:06.881Z,16.30
2018-04-07T04:41:38.608Z,16.40
2018-04-07T04:42:10.354Z,16.40
2018-04-07T04:42:42.105Z,16.40
2018-04-07T04:43:13.826Z,16.40
2018-04-07T04:43:45.568Z,16.40
2018-04-07T04:44:17.324Z,16.40
2018-04-07T04:44:49.071Z,16.30
2018-04-07T04:45:20.807Z,16.30
2018-04-07T04:45:52.550Z,16.30
2018-04-07T04:46:24.313Z,16.30
2018-04-07T04:46:56.047Z,16.30
2018-04-07T04:47:27.804Z,16.30
2018-04-07T04:47:59.545Z,16.30
2018-04-07T04:48:31.272Z,16.30
2018-04-07T04:49:03.057Z,16.30
2018-04-07T04:49:34.825Z,16.30
2018-04-07T04:50:07.316Z,16.30
2018-04-07T04:50:39.063Z,16.30
2018-04-07T04:51:10.800Z,16.30
2018-04-07T04:51:42.600Z,16.30
2018-04-07T04:52:15.203Z,16.30
2018-04-07T04:52:47.668Z,16.30
2018-04-07T04:53:19.411Z,16.30
2018-04-07T04:53:51.156Z,16.30
2018-04-07T04:54:22.896Z,16.30
2018-04-07T04:54:54.659Z,16.30
2018-04-07T04:55:26.376Z,16.30
2018-04-07T04:55:58.136Z,16.30
2018-04-07T04:56:30.052Z,16.30
2018-04-07T04:57:01.796Z,16.30
2018-04-07T04:57:33.534Z,16.30
2018-04-07T04:58:06.047Z,16.30
2018-04-07T04:58:37.790Z,16.30
2018-04-07T04:59:09.527Z,16.30
2018-04-07T04:59:41.291Z,16.30
2018-04-07T05:00:13.027Z,16.30
2018-04-07T05:00:44.771Z,16.30
2018-04-07T05:01:16.773Z,16.30
2018-04-07T05:01:49.367Z,16.30
2018-04-07T05:02:21.848Z,16.30
2018-04-07T05:02:53.583Z,16.30
2018-04-07T05:03:25.339Z,16.30
2018-04-07T05:03:57.088Z,16.30
2018-04-07T05:04:28.826Z,16.30
2018-04-07T05:05:00.572Z,16.30
2018-04-07T05:05:32.397Z,16.30
2018-04-07T05:06:05.073Z,16.30
2018-04-07T05:06:36.848Z,16.30
2018-04-07T05:07:08.763Z,16.30
2018-04-07T05:07:40.502Z,16.30
2018-04-07T05:08:12.232Z,16.30
2018-04-07T05:08:43.975Z,16.30
2018-04-07T05:09:15.708Z,16.30
2018-04-07T05:09:48.247Z,16.30
2018-04-07T05:10:19.989Z,16.30
2018-04-07T05:10:51.721Z,16.30
2018-04-07T05:11:23.460Z,16.30
2018-04-07T05:11:55.192Z,16.20
2018-04-07T05:12:26.936Z,16.30
2018-04-07T05:12:58.675Z,16.30
2018-04-07T05:13:30.437Z,16.30
2018-04-07T05:14:02.173Z,16.30
2018-04-07T05:14:34.145Z,16.30
2018-04-07T05:15:05.904Z,16.30
2018-04-07T05:15:37.848Z,16.20
2018-04-07T05:16:09.580Z,16.30
2018-04-07T05:16:41.572Z,16.30
2018-04-07T05:17:13.406Z,16.30
2018-04-07T05:17:45.915Z,16.30
2018-04-07T05:18:17.667Z,16.20
2018-04-07T05:18:49.407Z,16.30
2018-04-07T05:19:21.212Z,16.30
2018-04-07T05:19:52.914Z,16.30
2018-04-07T05:20:24.650Z,16.30
2018-04-07T05:20:56.387Z,16.30
2018-04-07T05:21:28.126Z,16.30
2018-04-07T05:21:59.868Z,16.40
2018-04-07T05:22:31.618Z,16.40
2018-04-07T05:23:03.345Z,16.30
2018-04-07T05:23:35.110Z,16.30
2018-04-07T05:24:06.821Z,16.40
2018-04-07T05:24:38.579Z,16.30
2018-04-07T05:25:10.312Z,16.30
2018-04-07T05:25:42.043Z,16.30
2018-04-07T05:26:13.787Z,16.30
2018-04-07T05:26:45.526Z,16.30
2018-04-07T05:27:18.043Z,16.30
2018-04-07T05:27:49.861Z,16.30
2018-04-07T05:28:22.338Z,16.30
2018-04-07T05:28:54.072Z,16.30
2018-04-07T05:29:25.812Z,16.30
2018-04-07T05:29:57.552Z,16.30
2018-04-07T05:30:29.298Z,16.30
2018-04-07T05:31:01.053Z,16.30
2018-04-07T05:31:32.799Z,16.30
2018-04-07T05:32:04.604Z,16.30
2018-04-07T05:32:36.384Z,16.30
2018-04-07T05:33:08.119Z,16.30
2018-04-07T05:33:39.855Z,16.30
2018-04-07T05:34:11.637Z,16.30
2018-04-07T05:34:43.516Z,16.30
2018-04-07T05:35:15.318Z,16.30
2018-04-07T05:35:47.055Z,16.30
2018-04-07T05:36:18.797Z,16.30
2018-04-07T05:36:50.550Z,16.30
2018-04-07T05:37:22.282Z,16.30
2018-04-07T05:37:54.083Z,16.30
2018-04-07T05:38:25.822Z,16.30
2018-04-07T05:38:57.555Z,16.30
2018-04-07T05:39:29.312Z,16.30
2018-04-07T05:40:01.049Z,16.30
2018-04-07T05:40:32.815Z,16.30
2018-04-07T05:41:05.355Z,16.30
2018-04-07T05:41:37.262Z,16.30
2018-04-07T05:42:09.026Z,16.30
2018-04-07T05:42:40.766Z,16.30
2018-04-07T05:43:12.514Z,16.30
2018-04-07T05:43:44.263Z,16.30
2018-04-07T05:44:16.035Z,16.30
2018-04-07T05:44:47.776Z,16.30
2018-04-07T05:45:19.523Z,16.30
2018-04-07T05:45:52.840Z,16.30
2018-04-07T05:46:25.537Z,16.30
2018-04-07T05:46:57.287Z,16.30
2018-04-07T05:47:29.031Z,16.30
2018-04-07T05:48:00.857Z,16.30
2018-04-07T05:48:33.376Z,16.30
2018-04-07T05:49:05.105Z,16.30
2018-04-07T05:49:36.858Z,16.30
2018-04-07T05:50:08.587Z,16.40
2018-04-07T05:50:40.332Z,16.40
2018-04-07T05:51:12.081Z,16.40
2018-04-07T05:51:43.819Z,16.30
2018-04-07T05:52:15.575Z,16.30
2018-04-07T05:52:47.315Z,16.40
2018-04-07T05:53:19.065Z,16.40
2018-04-07T05:53:50.796Z,16.40
2018-04-07T05:54:22.547Z,16.40
2018-04-07T05:54:54.280Z,16.40
2018-04-07T05:55:26.029Z,16.40
2018-04-07T05:55:57.777Z,16.40
2018-04-07T05:56:29.522Z,16.30
2018-04-07T05:57:01.279Z,16.30
2018-04-07T05:57:33.068Z,16.30
2018-04-07T05:58:04.791Z,16.30
2018-04-07T05:58:37.297Z,16.40
2018-04-07T05:59:09.052Z,16.40
2018-04-07T05:59:40.775Z,16.40
2018-04-07T06:00:12.567Z,16.40
2018-04-07T06:00:44.305Z,16.40
2018-04-07T06:01:16.157Z,16.40
2018-04-07T06:01:47.904Z,16.40
2018-04-07T06:02:19.623Z,16.40
2018-04-07T06:02:52.131Z,16.40
2018-04-07T06:03:23.866Z,16.40
2018-04-07T06:03:56.389Z,16.40
2018-04-07T06:04:28.127Z,16.40
2018-04-07T06:04:59.870Z,16.40
2018-04-07T06:05:31.627Z,16.40
2018-04-07T06:06:03.386Z,16.40
2018-04-07T06:06:35.125Z,16.50
2018-04-07T06:07:06.861Z,16.40
2018-04-07T06:07:38.592Z,16.40
2018-04-07T06:08:10.349Z,16.40
2018-04-07T06:08:42.088Z,16.50
2018-04-07T06:09:13.846Z,16.50
2018-04-07T06:09:45.783Z,16.50
2018-04-07T06:10:17.524Z,16.50
2018-04-07T06:10:49.267Z,16.60
2018-04-07T06:11:21.028Z,16.60
2018-04-07T06:11:52.784Z,16.60
2018-04-07T06:12:24.525Z,16.60
2018-04-07T06:12:56.268Z,16.60
2018-04-07T06:13:28.004Z,16.60
2018-04-07T06:13:59.759Z,16.60
2018-04-07T06:14:31.500Z,16.70
2018-04-07T06:15:03.234Z,16.70
2018-04-07T06:15:35.007Z,16.70
2018-04-07T06:16:07.517Z,16.80
2018-04-07T06:16:39.255Z,16.80
2018-04-07T06:17:11.004Z,16.80
2018-04-07T06:17:42.744Z,16.80
2018-04-07T06:18:14.485Z,16.80
2018-04-07T06:18:46.216Z,16.80
2018-04-07T06:19:17.953Z,16.80
2018-04-07T06:19:49.901Z,16.80
2018-04-07T06:20:21.675Z,16.80
2018-04-07T06:20:53.413Z,16.80
2018-04-07T06:21:25.146Z,16.90
2018-04-07T06:21:56.955Z,16.90
2018-04-07T06:22:29.493Z,16.90
2018-04-07T06:23:01.309Z,16.90
2018-04-07T06:23:33.797Z,17.00
2018-04-07T06:24:05.541Z,17.00
2018-04-07T06:24:37.276Z,17.00
2018-04-07T06:25:09.025Z,17.00
2018-04-07T06:25:40.777Z,17.00
2018-04-07T06:26:12.511Z,17.10
2018-04-07T06:26:44.240Z,17.10
2018-04-07T06:27:16.005Z,17.10
2018-04-07T06:27:47.759Z,17.10
2018-04-07T06:28:19.485Z,17.10
2018-04-07T06:28:51.321Z,17.10
2018-04-07T06:29:23.219Z,17.10
2018-04-07T06:29:54.966Z,17.00
2018-04-07T06:30:26.693Z,17.00
2018-04-07T06:30:58.506Z,17.10
2018-04-07T06:31:31.246Z,17.10
2018-04-07T06:32:03.773Z,17.10
2018-04-07T06:32:35.513Z,17.10
2018-04-07T06:33:07.262Z,17.10
2018-04-07T06:33:38.993Z,17.20
2018-04-07T06:34:10.723Z,17.10
2018-04-07T06:34:42.471Z,17.10
2018-04-07T06:35:14.223Z,17.10
2018-04-07T06:35:45.964Z,17.10
2018-04-07T06:36:17.715Z,17.10
2018-04-07T06:36:49.469Z,17.10
2018-04-07T06:37:21.220Z,17.20
2018-04-07T06:37:52.961Z,17.20
2018-04-07T06:38:24.702Z,17.20
2018-04-07T06:38:56.713Z,17.20
2018-04-07T06:39:29.191Z,17.20
2018-04-07T06:40:00.935Z,17.20
2018-04-07T06:40:32.719Z,17.20
2018-04-07T06:41:04.454Z,17.30
2018-04-07T06:41:36.193Z,17.30
2018-04-07T06:42:07.935Z,17.30
2018-04-07T06:42:39.686Z,17.30
2018-04-07T06:43:11.446Z,17.30
2018-04-07T06:43:43.499Z,17.20
2018-04-07T06:44:16.102Z,17.30
2018-04-07T06:44:48.581Z,17.20
2018-04-07T06:45:20.341Z,17.30
2018-04-07T06:45:52.082Z,17.20
2018-04-07T06:46:23.834Z,17.30
2018-04-07T06:46:55.600Z,17.30
2018-04-07T06:47:27.541Z,17.30
2018-04-07T06:48:00.069Z,17.30
2018-04-07T06:48:32.001Z,17.30
2018-04-07T06:49:03.764Z,17.30
2018-04-07T06:49:35.698Z,17.30
2018-04-07T06:50:07.446Z,17.30